createdAt,value
2022-08-24T00:03:12.126Z,261.53
2022-08-24T00:13:16.944Z,263.27
2022-08-24T00:23:22.203Z,270.53
2022-08-24T00:33:26.587Z,268.87
2022-08-24T00:43:33.161Z,263.87
2022-08-24T00:53:41.611Z,260.17
2022-08-24T01:03:47.518Z,272.90
2022-08-24T01:13:53.728Z,272.93
2022-08-24T01:24:01.907Z,270.20
2022-08-24T01:34:06.299Z,270.93
2022-08-24T01:44:12.175Z,275.23
2022-08-24T01:54:18.351Z,268.77
2022-08-24T02:04:23.957Z,276.50
2022-08-24T02:14:30.671Z,275.10
2022-08-24T02:24:38.722Z,270.57
2022-08-24T02:34:44.185Z,277.83
2022-08-24T02:44:50.559Z,281.43
2022-08-24T02:54:57.646Z,278.07
2022-08-24T03:05:03.625Z,278.93
2022-08-24T03:15:11.740Z,282.73
2022-08-24T03:25:20.678Z,283.47
2022-08-24T03:35:24.917Z,286.27
2022-08-24T03:45:30.894Z,282.53
2022-08-24T03:55:35.130Z,284.97
2022-08-24T04:05:42.432Z,301.47
2022-08-24T04:15:46.499Z,311.67
2022-08-24T04:25:51.889Z,301.13
2022-08-24T04:35:55.968Z,306.50
2022-08-24T04:46:08.104Z,297.90
2022-08-24T04:56:15.902Z,300.83
2022-08-24T05:06:26.048Z,291.17
2022-08-24T05:16:30.716Z,287.87
2022-08-24T05:26:38.164Z,292.77
2022-08-24T05:36:43.470Z,289.43
2022-08-24T05:47:03.016Z,276.07
2022-08-24T05:57:07.993Z,270.43
2022-08-24T06:07:27.120Z,265.93
2022-08-24T06:17:34.037Z,271.23
2022-08-24T06:27:39.318Z,274.37
2022-08-24T06:37:43.473Z,273.13
2022-08-24T06:47:49.728Z,271.10
2022-08-24T06:57:54.873Z,272.90
2022-08-24T07:08:00.577Z,260.03
2022-08-24T07:18:10.007Z,255.33
2022-08-24T07:28:18.754Z,265.53
2022-08-24T07:38:35.871Z,264.90
2022-08-24T07:48:41.629Z,258.00
2022-08-24T07:58:45.534Z,248.83
2022-08-24T08:08:50.486Z,257.67
2022-08-24T08:19:09.220Z,257.40
2022-08-24T08:29:17.043Z,252.80
2022-08-24T08:39:23.566Z,252.20
2022-08-24T08:50:01.601Z,242.33
2022-08-24T09:00:15.492Z,247.97
2022-08-24T09:10:55.966Z,245.30
2022-08-24T09:21:16.484Z,257.67
2022-08-24T09:31:59.109Z,255.07
2022-08-24T09:43:04.275Z,248.10
2022-08-24T09:53:55.931Z,251.57
2022-08-24T10:04:27.109Z,256.60
2022-08-24T10:14:53.778Z,252.52
2022-08-24T10:25:32.888Z,247.77
2022-08-24T10:35:53.869Z,248.32
2022-08-24T10:46:37.941Z,252.02
2022-08-24T10:56:55.121Z,282.63
2022-08-24T11:07:11.046Z,255.35
2022-08-24T11:17:22.033Z,252.25
2022-08-24T11:27:32.254Z,243.57
2022-08-24T11:37:40.626Z,229.52
2022-08-24T11:48:00.055Z,217.05
2022-08-24T11:58:12.935Z,229.90
2022-08-24T12:08:24.791Z,238.68
2022-08-24T12:18:39.865Z,227.65
2022-08-24T12:28:54.217Z,244.77
2022-08-24T12:39:11.299Z,242.32
2022-08-24T12:49:25.259Z,235.35
2022-08-24T12:59:32.961Z,243.00
2022-08-24T13:09:41.165Z,250.95
2022-08-24T13:20:39.367Z,244.02
2022-08-24T13:31:22.122Z,240.73
2022-08-24T13:41:55.266Z,251.73
2022-08-24T13:52:16.758Z,270.33
2022-08-24T14:02:38.290Z,252.23
2022-08-24T14:12:56.460Z,246.93
2022-08-24T14:23:08.394Z,248.23
2022-08-24T14:33:26.671Z,254.65
2022-08-24T14:43:55.364Z,253.90
2022-08-24T14:54:05.443Z,258.02
2022-08-24T15:04:38.448Z,247.50
2022-08-24T15:14:53.074Z,257.08
2022-08-24T15:25:12.369Z,258.95
2022-08-24T15:35:27.804Z,244.55
2022-08-24T15:45:33.279Z,256.25
2022-08-24T15:55:40.748Z,259.67
2022-08-24T16:05:49.447Z,249.90
2022-08-24T16:16:05.200Z,253.65
2022-08-24T16:26:29.775Z,243.02
2022-08-24T16:36:34.876Z,250.10
2022-08-24T16:46:40.797Z,244.43
2022-08-24T16:56:44.774Z,239.50
2022-08-24T17:06:50.848Z,243.17
2022-08-24T17:16:55.066Z,234.57
2022-08-24T17:27:02.053Z,249.23
2022-08-24T17:37:05.908Z,247.60
2022-08-24T17:47:10.962Z,246.27
2022-08-24T17:57:15.833Z,236.33
2022-08-24T18:07:42.342Z,248.17
2022-08-24T18:17:49.676Z,237.73
2022-08-24T18:27:58.616Z,237.00
2022-08-24T18:38:02.438Z,246.67
2022-08-24T18:48:07.855Z,250.67
2022-08-24T18:58:11.507Z,242.30
2022-08-24T19:08:16.916Z,240.03
2022-08-24T19:18:23.817Z,241.43
2022-08-24T19:28:30.068Z,235.03
2022-08-24T19:38:33.827Z,236.77
2022-08-24T19:48:40.532Z,244.70
2022-08-24T19:58:49.220Z,243.83
2022-08-24T20:08:54.718Z,244.87
2022-08-24T20:19:00.357Z,255.67
2022-08-24T20:29:06.023Z,232.60
2022-08-24T20:39:13.317Z,234.10
2022-08-24T20:49:21.800Z,238.73
2022-08-24T20:59:26.032Z,241.73
2022-08-24T21:09:31.151Z,239.37
2022-08-24T21:19:35.056Z,242.87
2022-08-24T21:29:40.424Z,243.00
2022-08-24T21:39:44.978Z,243.37
2022-08-24T21:49:50.156Z,237.80
2022-08-24T21:59:53.986Z,242.23
2022-08-24T22:09:59.855Z,242.80
2022-08-24T22:20:04.126Z,238.83
2022-08-24T22:30:12.299Z,243.13
2022-08-24T22:40:16.277Z,247.40
2022-08-24T22:50:24.146Z,239.43
2022-08-24T23:00:27.898Z,244.87
2022-08-24T23:10:33.320Z,234.77
2022-08-24T23:20:37.351Z,243.20
2022-08-24T23:30:42.531Z,231.30
2022-08-24T23:40:46.325Z,241.33
2022-08-24T23:50:51.630Z,231.00
